sensor_id;sensor_type;location;lat;lon;timestamp;pressure;altitude;pressure_sealevel;temperature;humidity
12879;BME280;20617;49.476;10.986;2024-03-29T00:00:19;96802.34;;;7.35;100.00
12879;BME280;20617;49.476;10.986;2024-03-29T00:02:20;96807.38;;;7.38;100.00
12879;BME280;20617;49.476;10.986;2024-03-29T00:04:20;96804.94;;;7.35;100.00
12879;BME280;20617;49.476;10.986;2024-03-29T00:06:21;96796.44;;;7.33;100.00
12879;BME280;20617;49.476;10.986;2024-03-29T00:08:22;96805.09;;;7.32;100.00
12879;BME280;20617;49.476;10.986;2024-03-29T00:10:25;96802.69;;;7.29;100.00
12879;BME280;20617;49.476;10.986;2024-03-29T00:12:26;96808.00;;;7.26;100.00
12879;BME280;20617;49.476;10.986;2024-03-29T00:14:31;96799.59;;;7.22;100.00
12879;BME280;20617;49.476;10.986;2024-03-29T00:16:31;96793.63;;;7.20;100.00
12879;BME280;20617;49.476;10.986;2024-03-29T00:18:32;96792.97;;;7.17;100.00
12879;BME280;20617;49.476;10.986;2024-03-29T00:20:33;96799.66;;;7.21;100.00
12879;BME280;20617;49.476;10.986;2024-03-29T00:22:34;96793.41;;;7.25;100.00
12879;BME280;20617;49.476;10.986;2024-03-29T00:24:35;96786.53;;;7.24;100.00
12879;BME280;20617;49.476;10.986;2024-03-29T00:26:35;96777.94;;;7.23;100.00
12879;BME280;20617;49.476;10.986;2024-03-29T00:28:36;96785.50;;;7.28;100.00
12879;BME280;20617;49.476;10.986;2024-03-29T00:30:39;96781.13;;;7.29;100.00
12879;BME280;20617;49.476;10.986;2024-03-29T00:32:40;96781.06;;;7.30;100.00
12879;BME280;20617;49.476;10.986;2024-03-29T00:34:41;96788.84;;;7.30;100.00
12879;BME280;20617;49.476;10.986;2024-03-29T00:36:41;96798.44;;;7.28;100.00
12879;BME280;20617;49.476;10.986;2024-03-29T00:38:42;96800.03;;;7.31;100.00
12879;BME280;20617;49.476;10.986;2024-03-29T00:40:43;96798.44;;;7.28;100.00
12879;BME280;20617;49.476;10.986;2024-03-29T00:42:43;96793.47;;;7.23;100.00
12879;BME280;20617;49.476;10.986;2024-03-29T00:44:44;96791.97;;;7.19;100.00
12879;BME280;20617;49.476;10.986;2024-03-29T00:46:47;96777.66;;;7.12;100.00
12879;BME280;20617;49.476;10.986;2024-03-29T00:48:48;96771.50;;;7.15;100.00
12879;BME280;20617;49.476;10.986;2024-03-29T00:50:49;96762.09;;;7.14;100.00
12879;BME280;20617;49.476;10.986;2024-03-29T00:52:50;96762.25;;;7.11;100.00
12879;BME280;20617;49.476;10.986;2024-03-29T00:54:51;96759.56;;;7.12;100.00
12879;BME280;20617;49.476;10.986;2024-03-29T00:56:52;96757.13;;;7.09;100.00
12879;BME280;20617;49.476;10.986;2024-03-29T00:58:52;96744.13;;;7.11;100.00
12879;BME280;20617;49.476;10.986;2024-03-29T01:00:53;96741.44;;;7.12;100.00
12879;BME280;20617;49.476;10.986;2024-03-29T01:02:56;96729.50;;;7.10;100.00
12879;BME280;20617;49.476;10.986;2024-03-29T01:04:57;96730.75;;;7.18;100.00
12879;BME280;20617;49.476;10.986;2024-03-29T01:06:58;96719.69;;;7.16;100.00
12879;BME280;20617;49.476;10.986;2024-03-29T01:08:59;96712.59;;;7.20;100.00
12879;BME280;20617;49.476;10.986;2024-03-29T01:11:00;96710.66;;;7.23;100.00
12879;BME280;20617;49.476;10.986;2024-03-29T01:13:01;96713.19;;;7.25;100.00
12879;BME280;20617;49.476;10.986;2024-03-29T01:15:01;96720.84;;;7.26;100.00
12879;BME280;20617;49.476;10.986;2024-03-29T01:17:02;96705.91;;;7.32;100.00
12879;BME280;20617;49.476;10.986;2024-03-29T01:19:06;96700.75;;;7.32;100.00
12879;BME280;20617;49.476;10.986;2024-03-29T01:21:06;96706.69;;;7.34;100.00
12879;BME280;20617;49.476;10.986;2024-03-29T01:23:07;96711.59;;;7.38;100.00
12879;BME280;20617;49.476;10.986;2024-03-29T01:25:08;96713.84;;;7.44;100.00
12879;BME280;20617;49.476;10.986;2024-03-29T01:27:09;96720.53;;;7.48;100.00
12879;BME280;20617;49.476;10.986;2024-03-29T01:29:09;96717.03;;;7.49;100.00
12879;BME280;20617;49.476;10.986;2024-03-29T01:31:11;96699.50;;;7.55;100.00
12879;BME280;20617;49.476;10.986;2024-03-29T01:33:12;96699.31;;;7.58;100.00
12879;BME280;20617;49.476;10.986;2024-03-29T01:35:16;96700.63;;;7.65;100.00
12879;BME280;20617;49.476;10.986;2024-03-29T01:37:17;96706.09;;;7.60;100.00
12879;BME280;20617;49.476;10.986;2024-03-29T01:39:18;96717.09;;;7.64;100.00
12879;BME280;20617;49.476;10.986;2024-03-29T01:41:18;96712.75;;;7.64;100.00
12879;BME280;20617;49.476;10.986;2024-03-29T01:43:19;96705.81;;;7.65;100.00
12879;BME280;20617;49.476;10.986;2024-03-29T01:45:20;96697.97;;;7.66;100.00
12879;BME280;20617;49.476;10.986;2024-03-29T01:47:20;96692.97;;;7.63;100.00
12879;BME280;20617;49.476;10.986;2024-03-29T01:49:21;96703.41;;;7.62;100.00
12879;BME280;20617;49.476;10.986;2024-03-29T01:51:25;96705.09;;;7.63;100.00
12879;BME280;20617;49.476;10.986;2024-03-29T01:53:27;96694.44;;;7.67;100.00
12879;BME280;20617;49.476;10.986;2024-03-29T01:55:28;96691.88;;;7.67;100.00
12879;BME280;20617;49.476;10.986;2024-03-29T01:57:31;96697.50;;;7.60;100.00
12879;BME280;20617;49.476;10.986;2024-03-29T01:59:32;96702.56;;;7.61;100.00
12879;BME280;20617;49.476;10.986;2024-03-29T02:01:33;96702.66;;;7.60;100.00
12879;BME280;20617;49.476;10.986;2024-03-29T02:03:34;96687.13;;;7.60;100.00
12879;BME280;20617;49.476;10.986;2024-03-29T02:05:35;96685.38;;;7.60;100.00
12879;BME280;20617;49.476;10.986;2024-03-29T02:07:39;96685.19;;;7.63;100.00
12879;BME280;20617;49.476;10.986;2024-03-29T02:09:39;96686.38;;;7.58;100.00
12879;BME280;20617;49.476;10.986;2024-03-29T02:11:40;96678.25;;;7.64;100.00
12879;BME280;20617;49.476;10.986;2024-03-29T02:13:41;96677.31;;;7.65;100.00
12879;BME280;20617;49.476;10.986;2024-03-29T02:15:42;96679.03;;;7.66;100.00
12879;BME280;20617;49.476;10.986;2024-03-29T02:17:43;96677.09;;;7.69;100.00
12879;BME280;20617;49.476;10.986;2024-03-29T02:19:43;96683.84;;;7.72;100.00
12879;BME280;20617;49.476;10.986;2024-03-29T02:21:47;96676.84;;;7.74;100.00
12879;BME280;20617;49.476;10.986;2024-03-29T02:23:59;96684.44;;;7.77;100.00
12879;BME280;20617;49.476;10.986;2024-03-29T02:26:00;96688.69;;;7.78;100.00
12879;BME280;20617;49.476;10.986;2024-03-29T02:30:57;96673.16;;;7.78;100.00
12879;BME280;20617;49.476;10.986;2024-03-29T02:32:58;96674.56;;;7.84;100.00
12879;BME280;20617;49.476;10.986;2024-03-29T02:34:59;96678.97;;;7.82;100.00
12879;BME280;20617;49.476;10.986;2024-03-29T02:36:59;96680.56;;;7.84;100.00
12879;BME280;20617;49.476;10.986;2024-03-29T02:39:03;96663.94;;;7.88;100.00
12879;BME280;20617;49.476;10.986;2024-03-29T02:41:03;96668.09;;;7.91;100.00
12879;BME280;20617;49.476;10.986;2024-03-29T02:43:04;96648.06;;;7.94;100.00
12879;BME280;20617;49.476;10.986;2024-03-29T02:45:06;96653.41;;;7.91;100.00
12879;BME280;20617;49.476;10.986;2024-03-29T02:47:06;96647.38;;;7.91;100.00
12879;BME280;20617;49.476;10.986;2024-03-29T02:49:07;96656.81;;;7.92;100.00
12879;BME280;20617;49.476;10.986;2024-03-29T02:51:08;96652.38;;;7.94;100.00
12879;BME280;20617;49.476;10.986;2024-03-29T02:53:09;96648.88;;;7.95;100.00
12879;BME280;20617;49.476;10.986;2024-03-29T02:55:12;96647.88;;;7.98;100.00
12879;BME280;20617;49.476;10.986;2024-03-29T02:57:13;96641.94;;;7.96;100.00
12879;BME280;20617;49.476;10.986;2024-03-29T02:59:13;96649.78;;;7.94;100.00
12879;BME280;20617;49.476;10.986;2024-03-29T03:01:14;96654.72;;;7.99;100.00
12879;BME280;20617;49.476;10.986;2024-03-29T03:03:16;96651.38;;;7.97;100.00
12879;BME280;20617;49.476;10.986;2024-03-29T03:05:17;96650.63;;;7.94;100.00
12879;BME280;20617;49.476;10.986;2024-03-29T03:07:17;96646.19;;;7.97;100.00
12879;BME280;20617;49.476;10.986;2024-03-29T03:09:18;96633.16;;;7.98;100.00
12879;BME280;20617;49.476;10.986;2024-03-29T03:11:22;96633.56;;;8.06;100.00
12879;BME280;20617;49.476;10.986;2024-03-29T03:13:22;96632.72;;;8.06;100.00
12879;BME280;20617;49.476;10.986;2024-03-29T03:15:23;96630.03;;;8.07;100.00
12879;BME280;20617;49.476;10.986;2024-03-29T03:17:24;96631.13;;;8.03;100.00
12879;BME280;20617;49.476;10.986;2024-03-29T03:19:25;96618.00;;;8.06;100.00
12879;BME280;20617;49.476;10.986;2024-03-29T03:21:26;96616.50;;;8.02;100.00
12879;BME280;20617;49.476;10.986;2024-03-29T03:23:26;96615.09;;;7.97;100.00
12879;BME280;20617;49.476;10.986;2024-03-29T03:25:27;96619.91;;;8.03;100.00
12879;BME280;20617;49.476;10.986;2024-03-29T03:27:31;96617.72;;;8.11;100.00
12879;BME280;20617;49.476;10.986;2024-03-29T03:29:31;96617.91;;;8.08;100.00
12879;BME280;20617;49.476;10.986;2024-03-29T03:31:32;96621.31;;;8.08;100.00
12879;BME280;20617;49.476;10.986;2024-03-29T03:33:33;96633.19;;;8.12;100.00
12879;BME280;20617;49.476;10.986;2024-03-29T03:35:33;96637.38;;;8.15;100.00
12879;BME280;20617;49.476;10.986;2024-03-29T03:37:34;96651.50;;;8.09;100.00
12879;BME280;20617;49.476;10.986;2024-03-29T03:39:35;96632.06;;;8.16;100.00
12879;BME280;20617;49.476;10.986;2024-03-29T03:41:36;96635.31;;;8.20;100.00
12879;BME280;20617;49.476;10.986;2024-03-29T03:43:39;96631.00;;;8.21;100.00
12879;BME280;20617;49.476;10.986;2024-03-29T03:45:40;96636.91;;;8.23;100.00
12879;BME280;20617;49.476;10.986;2024-03-29T03:47:41;96636.72;;;8.26;100.00
12879;BME280;20617;49.476;10.986;2024-03-29T03:49:42;96647.75;;;8.29;100.00
12879;BME280;20617;49.476;10.986;2024-03-29T03:51:42;96647.09;;;8.26;100.00
12879;BME280;20617;49.476;10.986;2024-03-29T03:53:43;96641.28;;;8.36;100.00
12879;BME280;20617;49.476;10.986;2024-03-29T03:55:44;96638.94;;;8.32;100.00
12879;BME280;20617;49.476;10.986;2024-03-29T03:57:44;96639.88;;;8.31;100.00
12879;BME280;20617;49.476;10.986;2024-03-29T03:59:50;96645.53;;;8.37;100.00
12879;BME280;20617;49.476;10.986;2024-03-29T04:01:51;96660.38;;;8.35;100.00
12879;BME280;20617;49.476;10.986;2024-03-29T04:03:52;96657.50;;;8.40;100.00
12879;BME280;20617;49.476;10.986;2024-03-29T04:05:52;96655.06;;;8.37;100.00
12879;BME280;20617;49.476;10.986;2024-03-29T04:07:53;96647.28;;;8.37;100.00
12879;BME280;20617;49.476;10.986;2024-03-29T04:09:54;96636.88;;;8.38;100.00
12879;BME280;20617;49.476;10.986;2024-03-29T04:11:55;96623.13;;;8.36;100.00
12879;BME280;20617;49.476;10.986;2024-03-29T04:13:55;96651.84;;;8.33;100.00
12879;BME280;20617;49.476;10.986;2024-03-29T04:16:04;96645.63;;;8.36;100.00
12879;BME280;20617;49.476;10.986;2024-03-29T04:18:06;96645.22;;;8.44;100.00
12879;BME280;20617;49.476;10.986;2024-03-29T04:20:08;96637.97;;;8.49;100.00
12879;BME280;20617;49.476;10.986;2024-03-29T04:22:09;96644.66;;;8.53;100.00
12879;BME280;20617;49.476;10.986;2024-03-29T04:24:09;96650.56;;;8.55;100.00
12879;BME280;20617;49.476;10.986;2024-03-29T04:26:10;96639.38;;;8.54;100.00
12879;BME280;20617;49.476;10.986;2024-03-29T04:28:11;96633.47;;;8.52;100.00
12879;BME280;20617;49.476;10.986;2024-03-29T04:30:12;96646.44;;;8.52;100.00
12879;BME280;20617;49.476;10.986;2024-03-29T04:32:16;96635.19;;;8.52;100.00
12879;BME280;20617;49.476;10.986;2024-03-29T04:34:17;96646.38;;;8.38;100.00
12879;BME280;20617;49.476;10.986;2024-03-29T04:36:17;96667.69;;;8.43;100.00
12879;BME280;20617;49.476;10.986;2024-03-29T04:38:18;96662.81;;;8.38;100.00
12879;BME280;20617;49.476;10.986;2024-03-29T04:40:19;96660.78;;;8.44;100.00
12879;BME280;20617;49.476;10.986;2024-03-29T04:42:19;96671.69;;;8.49;100.00
12879;BME280;20617;49.476;10.986;2024-03-29T04:44:23;96673.19;;;8.53;100.00
12879;BME280;20617;49.476;10.986;2024-03-29T04:46:24;96674.84;;;8.54;100.00
12879;BME280;20617;49.476;10.986;2024-03-29T04:48:30;96679.59;;;8.61;100.00
12879;BME280;20617;49.476;10.986;2024-03-29T04:50:31;96679.03;;;8.71;100.00
12879;BME280;20617;49.476;10.986;2024-03-29T04:52:32;96671.72;;;8.77;100.00
12879;BME280;20617;49.476;10.986;2024-03-29T04:54:33;96663.94;;;8.77;100.00
12879;BME280;20617;49.476;10.986;2024-03-29T04:56:34;96667.00;;;8.70;100.00
12879;BME280;20617;49.476;10.986;2024-03-29T04:58:34;96673.41;;;8.64;100.00
12879;BME280;20617;49.476;10.986;2024-03-29T05:00:35;96698.28;;;8.67;100.00
12879;BME280;20617;49.476;10.986;2024-03-29T05:02:36;96694.88;;;8.66;100.00
12879;BME280;20617;49.476;10.986;2024-03-29T05:04:39;96720.38;;;8.74;100.00
12879;BME280;20617;49.476;10.986;2024-03-29T05:06:40;96704.69;;;8.75;100.00
12879;BME280;20617;49.476;10.986;2024-03-29T05:08:41;96674.69;;;8.71;100.00
12879;BME280;20617;49.476;10.986;2024-03-29T05:10:43;96699.88;;;8.69;100.00
12879;BME280;20617;49.476;10.986;2024-03-29T05:12:44;96718.16;;;8.68;100.00
12879;BME280;20617;49.476;10.986;2024-03-29T05:14:44;96728.34;;;8.71;100.00
12879;BME280;20617;49.476;10.986;2024-03-29T05:16:45;96708.97;;;8.76;100.00
12879;BME280;20617;49.476;10.986;2024-03-29T05:18:46;96698.88;;;8.86;100.00
12879;BME280;20617;49.476;10.986;2024-03-29T05:20:50;96710.56;;;8.93;100.00
12879;BME280;20617;49.476;10.986;2024-03-29T05:22:50;96718.25;;;8.95;100.00
12879;BME280;20617;49.476;10.986;2024-03-29T05:24:52;96715.66;;;8.95;100.00
12879;BME280;20617;49.476;10.986;2024-03-29T05:26:53;96697.47;;;8.95;100.00
12879;BME280;20617;49.476;10.986;2024-03-29T05:28:54;96719.44;;;8.89;100.00
12879;BME280;20617;49.476;10.986;2024-03-29T05:30:55;96755.78;;;8.89;100.00
12879;BME280;20617;49.476;10.986;2024-03-29T05:32:56;96746.22;;;8.90;100.00
12879;BME280;20617;49.476;10.986;2024-03-29T05:34:57;96744.56;;;9.03;100.00
12879;BME280;20617;49.476;10.986;2024-03-29T05:37:01;96744.59;;;9.17;100.00
12879;BME280;20617;49.476;10.986;2024-03-29T05:39:01;96740.66;;;9.24;100.00
12879;BME280;20617;49.476;10.986;2024-03-29T05:41:02;96737.63;;;9.32;100.00
12879;BME280;20617;49.476;10.986;2024-03-29T05:43:04;96709.81;;;9.34;100.00
12879;BME280;20617;49.476;10.986;2024-03-29T05:45:22;96702.34;;;9.42;100.00
12879;BME280;20617;49.476;10.986;2024-03-29T05:47:23;96678.84;;;9.31;100.00
12879;BME280;20617;49.476;10.986;2024-03-29T05:49:24;96704.06;;;9.29;100.00
12879;BME280;20617;49.476;10.986;2024-03-29T05:51:25;96708.31;;;9.30;100.00
12879;BME280;20617;49.476;10.986;2024-03-29T05:53:28;96683.47;;;9.26;100.00
12879;BME280;20617;49.476;10.986;2024-03-29T05:55:29;96674.56;;;9.30;100.00
12879;BME280;20617;49.476;10.986;2024-03-29T05:57:30;96702.47;;;9.26;100.00
12879;BME280;20617;49.476;10.986;2024-03-29T05:59:30;96689.56;;;9.25;100.00
12879;BME280;20617;49.476;10.986;2024-03-29T06:01:31;96694.13;;;9.21;100.00
12879;BME280;20617;49.476;10.986;2024-03-29T06:03:32;96711.47;;;9.21;100.00
12879;BME280;20617;49.476;10.986;2024-03-29T06:05:33;96723.81;;;9.32;100.00
12879;BME280;20617;49.476;10.986;2024-03-29T06:07:33;96712.28;;;9.36;100.00
12879;BME280;20617;49.476;10.986;2024-03-29T06:09:37;96721.66;;;9.38;100.00
12879;BME280;20617;49.476;10.986;2024-03-29T06:11:38;96720.25;;;9.47;100.00
12879;BME280;20617;49.476;10.986;2024-03-29T06:13:39;96730.75;;;9.45;100.00
12879;BME280;20617;49.476;10.986;2024-03-29T06:15:39;96721.06;;;9.47;100.00
12879;BME280;20617;49.476;10.986;2024-03-29T06:17:40;96734.81;;;9.49;100.00
12879;BME280;20617;49.476;10.986;2024-03-29T06:19:41;96736.09;;;9.57;100.00
12879;BME280;20617;49.476;10.986;2024-03-29T06:21:41;96728.03;;;9.61;100.00
12879;BME280;20617;49.476;10.986;2024-03-29T06:23:42;96721.25;;;9.59;100.00
12879;BME280;20617;49.476;10.986;2024-03-29T06:25:45;96750.75;;;9.58;100.00
12879;BME280;20617;49.476;10.986;2024-03-29T06:27:46;96736.94;;;9.57;100.00
12879;BME280;20617;49.476;10.986;2024-03-29T06:29:49;96732.47;;;9.59;100.00
12879;BME280;20617;49.476;10.986;2024-03-29T06:31:49;96723.19;;;9.69;100.00
12879;BME280;20617;49.476;10.986;2024-03-29T06:33:50;96726.59;;;9.70;100.00
12879;BME280;20617;49.476;10.986;2024-03-29T06:35:54;96718.22;;;9.79;100.00
12879;BME280;20617;49.476;10.986;2024-03-29T06:37:56;96737.78;;;9.85;100.00
12879;BME280;20617;49.476;10.986;2024-03-29T06:39:57;96719.59;;;9.85;100.00
12879;BME280;20617;49.476;10.986;2024-03-29T06:42:00;96716.81;;;9.88;100.00
12879;BME280;20617;49.476;10.986;2024-03-29T06:44:03;96710.97;;;9.84;100.00
12879;BME280;20617;49.476;10.986;2024-03-29T06:46:04;96696.50;;;9.80;100.00
12879;BME280;20617;49.476;10.986;2024-03-29T06:48:06;96686.44;;;9.88;100.00
12879;BME280;20617;49.476;10.986;2024-03-29T06:50:08;96694.91;;;9.92;100.00
12879;BME280;20617;49.476;10.986;2024-03-29T06:52:09;96688.75;;;9.93;100.00
12879;BME280;20617;49.476;10.986;2024-03-29T06:54:10;96692.09;;;9.95;100.00
12879;BME280;20617;49.476;10.986;2024-03-29T06:56:11;96704.44;;;9.91;100.00
12879;BME280;20617;49.476;10.986;2024-03-29T06:58:16;96692.81;;;9.97;100.00
12879;BME280;20617;49.476;10.986;2024-03-29T07:00:17;96685.00;;;9.97;100.00
12879;BME280;20617;49.476;10.986;2024-03-29T07:02:18;96676.50;;;9.95;100.00
12879;BME280;20617;49.476;10.986;2024-03-29T07:04:19;96668.50;;;9.98;100.00
12879;BME280;20617;49.476;10.986;2024-03-29T07:06:20;96668.50;;;9.98;100.00
12879;BME280;20617;49.476;10.986;2024-03-29T07:08:22;96666.41;;;10.03;100.00
12879;BME280;20617;49.476;10.986;2024-03-29T07:10:25;96670.38;;;10.09;100.00
12879;BME280;20617;49.476;10.986;2024-03-29T07:12:26;96675.28;;;10.13;100.00
12879;BME280;20617;49.476;10.986;2024-03-29T07:14:32;96661.31;;;10.29;100.00
12879;BME280;20617;49.476;10.986;2024-03-29T07:16:32;96646.66;;;10.28;100.00
12879;BME280;20617;49.476;10.986;2024-03-29T07:18:33;96652.78;;;10.39;100.00
12879;BME280;20617;49.476;10.986;2024-03-29T07:20:34;96662.69;;;10.47;100.00
12879;BME280;20617;49.476;10.986;2024-03-29T07:22:34;96661.41;;;10.53;100.00
12879;BME280;20617;49.476;10.986;2024-03-29T07:24:35;96665.28;;;10.60;100.00
12879;BME280;20617;49.476;10.986;2024-03-29T07:26:36;96666.66;;;10.65;100.00
12879;BME280;20617;49.476;10.986;2024-03-29T07:28:38;96663.09;;;10.67;100.00
12879;BME280;20617;49.476;10.986;2024-03-29T07:30:41;96652.19;;;10.74;100.00
12879;BME280;20617;49.476;10.986;2024-03-29T07:32:42;96663.00;;;10.81;100.00
12879;BME280;20617;49.476;10.986;2024-03-29T07:34:43;96635.94;;;10.83;100.00
12879;BME280;20617;49.476;10.986;2024-03-29T07:36:44;96658.91;;;11.02;100.00
12879;BME280;20617;49.476;10.986;2024-03-29T07:38:44;96674.81;;;11.10;100.00
12879;BME280;20617;49.476;10.986;2024-03-29T07:40:45;96673.69;;;11.15;100.00
12879;BME280;20617;49.476;10.986;2024-03-29T07:42:46;96659.19;;;11.23;100.00
12879;BME280;20617;49.476;10.986;2024-03-29T07:44:47;96671.19;;;11.26;100.00
12879;BME280;20617;49.476;10.986;2024-03-29T07:46:50;96663.38;;;11.26;100.00
12879;BME280;20617;49.476;10.986;2024-03-29T07:48:51;96688.34;;;11.28;100.00
12879;BME280;20617;49.476;10.986;2024-03-29T07:50:52;96694.66;;;11.37;100.00
12879;BME280;20617;49.476;10.986;2024-03-29T07:52:52;96674.56;;;11.39;100.00
12879;BME280;20617;49.476;10.986;2024-03-29T07:54:53;96682.69;;;11.47;100.00
12879;BME280;20617;49.476;10.986;2024-03-29T07:56:54;96684.75;;;11.42;100.00
12879;BME280;20617;49.476;10.986;2024-03-29T07:58:55;96687.38;;;11.42;100.00
12879;BME280;20617;49.476;10.986;2024-03-29T08:00:55;96702.69;;;11.47;100.00
12879;BME280;20617;49.476;10.986;2024-03-29T08:02:59;96691.41;;;11.59;100.00
12879;BME280;20617;49.476;10.986;2024-03-29T08:04:59;96689.63;;;11.60;100.00
12879;BME280;20617;49.476;10.986;2024-03-29T08:07:00;96678.03;;;11.64;99.66
12879;BME280;20617;49.476;10.986;2024-03-29T08:09:01;96658.78;;;11.77;97.59
12879;BME280;20617;49.476;10.986;2024-03-29T08:11:02;96660.56;;;11.90;97.95
12879;BME280;20617;49.476;10.986;2024-03-29T08:13:03;96657.53;;;12.07;97.51
12879;BME280;20617;49.476;10.986;2024-03-29T08:15:05;96671.94;;;12.24;95.31
12879;BME280;20617;49.476;10.986;2024-03-29T08:17:05;96670.19;;;12.36;92.30
12879;BME280;20617;49.476;10.986;2024-03-29T08:19:09;96660.97;;;12.43;92.30
12879;BME280;20617;49.476;10.986;2024-03-29T08:21:10;96659.78;;;12.58;92.05
12879;BME280;20617;49.476;10.986;2024-03-29T08:23:11;96649.63;;;12.78;91.09
12879;BME280;20617;49.476;10.986;2024-03-29T08:25:11;96648.56;;;12.91;91.68
12879;BME280;20617;49.476;10.986;2024-03-29T08:27:12;96652.34;;;12.99;90.64
12879;BME280;20617;49.476;10.986;2024-03-29T08:29:13;96642.25;;;13.05;89.53
12879;BME280;20617;49.476;10.986;2024-03-29T08:31:15;96634.56;;;13.04;87.01
12879;BME280;20617;49.476;10.986;2024-03-29T08:33:15;96638.47;;;12.98;88.32
12879;BME280;20617;49.476;10.986;2024-03-29T08:35:19;96623.38;;;12.90;88.23
12879;BME280;20617;49.476;10.986;2024-03-29T08:37:19;96609.25;;;12.93;89.22
12879;BME280;20617;49.476;10.986;2024-03-29T08:39:20;96612.09;;;12.90;89.54
12879;BME280;20617;49.476;10.986;2024-03-29T08:41:21;96616.28;;;12.93;91.34
12879;BME280;20617;49.476;10.986;2024-03-29T08:43:21;96617.81;;;12.84;91.06
12879;BME280;20617;49.476;10.986;2024-03-29T08:45:23;96611.53;;;12.86;92.44
12879;BME280;20617;49.476;10.986;2024-03-29T08:47:23;96626.97;;;12.89;92.87
12879;BME280;20617;49.476;10.986;2024-03-29T08:49:25;96634.31;;;12.96;93.67
12879;BME280;20617;49.476;10.986;2024-03-29T08:51:29;96632.75;;;12.93;94.32
12879;BME280;20617;49.476;10.986;2024-03-29T08:53:30;96642.38;;;12.93;94.75
12879;BME280;20617;49.476;10.986;2024-03-29T08:55:32;96658.06;;;12.93;95.18
12879;BME280;20617;49.476;10.986;2024-03-29T08:57:33;96673.84;;;12.91;96.02
12879;BME280;20617;49.476;10.986;2024-03-29T08:59:33;96695.91;;;12.87;100.00
12879;BME280;20617;49.476;10.986;2024-03-29T09:01:36;96714.31;;;12.85;100.00
12879;BME280;20617;49.476;10.986;2024-03-29T09:03:37;96717.03;;;12.73;100.00
12879;BME280;20617;49.476;10.986;2024-03-29T09:05:38;96719.97;;;12.68;100.00
12879;BME280;20617;49.476;10.986;2024-03-29T09:07:41;96742.50;;;12.58;100.00
12879;BME280;20617;49.476;10.986;2024-03-29T09:09:42;96731.44;;;12.43;100.00
12879;BME280;20617;49.476;10.986;2024-03-29T09:11:43;96730.94;;;12.38;100.00
12879;BME280;20617;49.476;10.986;2024-03-29T09:13:43;96742.88;;;12.29;100.00
12879;BME280;20617;49.476;10.986;2024-03-29T09:15:44;96747.13;;;12.30;100.00
12879;BME280;20617;49.476;10.986;2024-03-29T09:17:45;96754.59;;;12.23;100.00
12879;BME280;20617;49.476;10.986;2024-03-29T09:19:49;96749.09;;;12.15;100.00
12879;BME280;20617;49.476;10.986;2024-03-29T09:21:50;96755.94;;;11.92;100.00
12879;BME280;20617;49.476;10.986;2024-03-29T09:23:55;96766.72;;;11.88;100.00
12879;BME280;20617;49.476;10.986;2024-03-29T09:25:56;96764.53;;;11.82;100.00
12879;BME280;20617;49.476;10.986;2024-03-29T09:27:57;96773.00;;;11.85;100.00
12879;BME280;20617;49.476;10.986;2024-03-29T09:29:58;96780.59;;;11.88;100.00
12879;BME280;20617;49.476;10.986;2024-03-29T09:31:59;96788.41;;;11.88;100.00
12879;BME280;20617;49.476;10.986;2024-03-29T09:34:00;96784.03;;;11.89;100.00
12879;BME280;20617;49.476;10.986;2024-03-29T09:36:00;96789.78;;;11.81;100.00
12879;BME280;20617;49.476;10.986;2024-03-29T09:38:01;96798.63;;;11.78;100.00
12879;BME280;20617;49.476;10.986;2024-03-29T09:40:06;96792.09;;;11.73;100.00
12879;BME280;20617;49.476;10.986;2024-03-29T09:42:08;96791.13;;;11.74;100.00
12879;BME280;20617;49.476;10.986;2024-03-29T09:44:14;96793.88;;;11.72;100.00
12879;BME280;20617;49.476;10.986;2024-03-29T09:46:15;96795.00;;;11.81;100.00
12879;BME280;20617;49.476;10.986;2024-03-29T09:48:16;96781.00;;;11.82;100.00
12879;BME280;20617;49.476;10.986;2024-03-29T09:50:17;96790.28;;;11.86;100.00
12879;BME280;20617;49.476;10.986;2024-03-29T09:52:19;96781.19;;;11.92;100.00
12879;BME280;20617;49.476;10.986;2024-03-29T09:54:20;96792.16;;;11.97;100.00
12879;BME280;20617;49.476;10.986;2024-03-29T09:56:25;96791.84;;;12.02;100.00
12879;BME280;20617;49.476;10.986;2024-03-29T09:58:26;96804.88;;;12.02;100.00
12879;BME280;20617;49.476;10.986;2024-03-29T10:00:27;96805.78;;;12.13;100.00
12879;BME280;20617;49.476;10.986;2024-03-29T10:02:30;96817.81;;;12.27;100.00
12879;BME280;20617;49.476;10.986;2024-03-29T10:04:32;96821.66;;;12.34;100.00
12879;BME280;20617;49.476;10.986;2024-03-29T10:06:36;96803.66;;;12.42;100.00
12879;BME280;20617;49.476;10.986;2024-03-29T10:08:37;96811.06;;;12.49;100.00
12879;BME280;20617;49.476;10.986;2024-03-29T10:10:38;96807.47;;;12.50;100.00
12879;BME280;20617;49.476;10.986;2024-03-29T10:12:42;96794.47;;;12.61;100.00
12879;BME280;20617;49.476;10.986;2024-03-29T10:14:44;96796.19;;;12.73;100.00
12879;BME280;20617;49.476;10.986;2024-03-29T10:16:45;96793.34;;;12.76;100.00
12879;BME280;20617;49.476;10.986;2024-03-29T10:18:47;96792.66;;;12.74;100.00
12879;BME280;20617;49.476;10.986;2024-03-29T10:20:58;96798.78;;;12.73;100.00
12879;BME280;20617;49.476;10.986;2024-03-29T10:23:01;96801.03;;;12.66;100.00
12879;BME280;20617;49.476;10.986;2024-03-29T10:25:03;96794.38;;;12.62;100.00
12879;BME280;20617;49.476;10.986;2024-03-29T10:27:04;96774.19;;;12.64;100.00
12879;BME280;20617;49.476;10.986;2024-03-29T10:29:08;96750.13;;;12.72;100.00
12879;BME280;20617;49.476;10.986;2024-03-29T10:31:08;96721.47;;;12.59;100.00
12879;BME280;20617;49.476;10.986;2024-03-29T10:33:09;96711.91;;;12.60;100.00
12879;BME280;20617;49.476;10.986;2024-03-29T10:35:10;96715.59;;;12.68;100.00